sensor_id;sensor_type;location;lat;lon;timestamp;pressure;altitude;pressure_sealevel;temperature;humidity
80566;BME280;69915;54.862;10.730;2023-12-20T00:01:18;100536.00;;;5.66;100.00
80566;BME280;69915;54.862;10.730;2023-12-20T00:03:44;100538.19;;;5.69;100.00
80566;BME280;69915;54.862;10.730;2023-12-20T00:06:10;100536.03;;;5.71;100.00
80566;BME280;69915;54.862;10.730;2023-12-20T00:08:36;100525.72;;;5.73;100.00
80566;BME280;69915;54.862;10.730;2023-12-20T00:11:01;100526.56;;;5.79;100.00
80566;BME280;69915;54.862;10.730;2023-12-20T00:13:27;100519.78;;;5.76;100.00
80566;BME280;69915;54.862;10.730;2023-12-20T00:15:52;100522.47;;;5.76;100.00
80566;BME280;69915;54.862;10.730;2023-12-20T00:18:18;100508.91;;;5.76;100.00
80566;BME280;69915;54.862;10.730;2023-12-20T00:20:44;100501.84;;;5.75;100.00
80566;BME280;69915;54.862;10.730;2023-12-20T00:23:09;100506.75;;;5.78;100.00
80566;BME280;69915;54.862;10.730;2023-12-20T00:25:35;100508.94;;;5.81;100.00
80566;BME280;69915;54.862;10.730;2023-12-20T00:28:01;100498.06;;;5.81;100.00
80566;BME280;69915;54.862;10.730;2023-12-20T00:30:27;100499.22;;;5.85;100.00
80566;BME280;69915;54.862;10.730;2023-12-20T00:32:53;100491.88;;;5.86;100.00
80566;BME280;69915;54.862;10.730;2023-12-20T00:35:19;100491.34;;;5.89;100.00
80566;BME280;69915;54.862;10.730;2023-12-20T00:37:44;100482.16;;;5.95;100.00
80566;BME280;69915;54.862;10.730;2023-12-20T00:40:10;100487.78;;;5.83;100.00
80566;BME280;69915;54.862;10.730;2023-12-20T00:42:36;100481.78;;;5.76;100.00
80566;BME280;69915;54.862;10.730;2023-12-20T00:45:02;100479.31;;;5.65;100.00
80566;BME280;69915;54.862;10.730;2023-12-20T00:47:30;100475.22;;;5.52;100.00
80566;BME280;69915;54.862;10.730;2023-12-20T00:49:56;100473.28;;;5.47;100.00
80566;BME280;69915;54.862;10.730;2023-12-20T00:52:21;100457.53;;;5.34;100.00
80566;BME280;69915;54.862;10.730;2023-12-20T00:54:48;100470.50;;;5.27;100.00
80566;BME280;69915;54.862;10.730;2023-12-20T00:57:14;100473.75;;;5.24;100.00
80566;BME280;69915;54.862;10.730;2023-12-20T00:59:40;100472.91;;;5.24;100.00
80566;BME280;69915;54.862;10.730;2023-12-20T01:02:06;100458.28;;;5.20;100.00
80566;BME280;69915;54.862;10.730;2023-12-20T01:04:31;100452.25;;;5.08;100.00
80566;BME280;69915;54.862;10.730;2023-12-20T01:06:57;100450.09;;;5.10;100.00
80566;BME280;69915;54.862;10.730;2023-12-20T01:09:22;100438.69;;;5.08;100.00
80566;BME280;69915;54.862;10.730;2023-12-20T01:11:54;100433.53;;;5.01;100.00
80566;BME280;69915;54.862;10.730;2023-12-20T01:14:19;100428.91;;;5.02;100.00
80566;BME280;69915;54.862;10.730;2023-12-20T01:16:45;100429.44;;;4.99;100.00
80566;BME280;69915;54.862;10.730;2023-12-20T01:19:11;100418.06;;;5.02;100.00
80566;BME280;69915;54.862;10.730;2023-12-20T01:21:36;100420.53;;;5.08;100.00
80566;BME280;69915;54.862;10.730;2023-12-20T01:24:02;100417.88;;;5.13;100.00
80566;BME280;69915;54.862;10.730;2023-12-20T01:26:29;100412.22;;;5.20;100.00
80566;BME280;69915;54.862;10.730;2023-12-20T01:28:54;100409.28;;;5.31;100.00
80566;BME280;69915;54.862;10.730;2023-12-20T01:31:20;100402.00;;;5.47;100.00
80566;BME280;69915;54.862;10.730;2023-12-20T01:33:45;100394.69;;;5.53;100.00
80566;BME280;69915;54.862;10.730;2023-12-20T01:36:11;100389.81;;;5.65;100.00
80566;BME280;69915;54.862;10.730;2023-12-20T01:38:37;100392.56;;;5.75;100.00
80566;BME280;69915;54.862;10.730;2023-12-20T01:41:02;100387.97;;;5.80;100.00
80566;BME280;69915;54.862;10.730;2023-12-20T01:43:29;100376.56;;;5.83;100.00
80566;BME280;69915;54.862;10.730;2023-12-20T01:45:57;100385.25;;;5.80;100.00
80566;BME280;69915;54.862;10.730;2023-12-20T01:48:24;100383.31;;;5.76;100.00
80566;BME280;69915;54.862;10.730;2023-12-20T01:50:51;100373.84;;;5.73;100.00
80566;BME280;69915;54.862;10.730;2023-12-20T01:53:19;100369.22;;;5.74;100.00
80566;BME280;69915;54.862;10.730;2023-12-20T01:55:45;100371.41;;;5.72;100.00
80566;BME280;69915;54.862;10.730;2023-12-20T01:58:13;100362.41;;;5.66;100.00
80566;BME280;69915;54.862;10.730;2023-12-20T02:00:39;100361.88;;;5.59;100.00
80566;BME280;69915;54.862;10.730;2023-12-20T02:03:05;100347.25;;;5.65;100.00
80566;BME280;69915;54.862;10.730;2023-12-20T02:05:31;100350.50;;;5.72;100.00
80566;BME280;69915;54.862;10.730;2023-12-20T02:07:57;100342.66;;;5.71;100.00
80566;BME280;69915;54.862;10.730;2023-12-20T02:10:23;100342.91;;;5.74;100.00
80566;BME280;69915;54.862;10.730;2023-12-20T02:12:49;100336.13;;;5.77;100.00
80566;BME280;69915;54.862;10.730;2023-12-20T02:15:15;100331.00;;;5.80;100.00
80566;BME280;69915;54.862;10.730;2023-12-20T02:17:40;100338.03;;;5.81;100.00
80566;BME280;69915;54.862;10.730;2023-12-20T02:20:06;100327.75;;;5.88;100.00
80566;BME280;69915;54.862;10.730;2023-12-20T02:22:32;100331.25;;;5.79;100.00
80566;BME280;69915;54.862;10.730;2023-12-20T02:24:58;100318.78;;;5.83;100.00
80566;BME280;69915;54.862;10.730;2023-12-20T02:27:23;100323.69;;;5.86;100.00
80566;BME280;69915;54.862;10.730;2023-12-20T02:29:49;100304.91;;;5.84;100.00
80566;BME280;69915;54.862;10.730;2023-12-20T02:32:17;100312.84;;;5.86;100.00
80566;BME280;69915;54.862;10.730;2023-12-20T02:34:43;100298.69;;;5.74;100.00
80566;BME280;69915;54.862;10.730;2023-12-20T02:37:08;100294.63;;;5.81;100.00
80566;BME280;69915;54.862;10.730;2023-12-20T02:39:33;100298.97;;;5.77;100.00
80566;BME280;69915;54.862;10.730;2023-12-20T02:41:59;100284.88;;;5.80;100.00
80566;BME280;69915;54.862;10.730;2023-12-20T02:44:24;100298.72;;;5.89;100.00
80566;BME280;69915;54.862;10.730;2023-12-20T02:46:50;100293.84;;;5.91;100.00
80566;BME280;69915;54.862;10.730;2023-12-20T02:49:15;100285.66;;;6.06;100.00
80566;BME280;69915;54.862;10.730;2023-12-20T02:51:41;100289.47;;;6.10;100.00
80566;BME280;69915;54.862;10.730;2023-12-20T02:54:07;100281.03;;;6.12;100.00
80566;BME280;69915;54.862;10.730;2023-12-20T02:56:48;100275.34;;;6.13;100.00
80566;BME280;69915;54.862;10.730;2023-12-20T02:59:14;100258.78;;;6.20;100.00
80566;BME280;69915;54.862;10.730;2023-12-20T03:01:44;100253.91;;;6.17;100.00
80566;BME280;69915;54.862;10.730;2023-12-20T03:04:10;100258.78;;;6.20;100.00
80566;BME280;69915;54.862;10.730;2023-12-20T03:06:35;100250.66;;;6.20;100.00
80566;BME280;69915;54.862;10.730;2023-12-20T03:09:01;100251.19;;;6.17;100.00
80566;BME280;69915;54.862;10.730;2023-12-20T03:11:27;100234.91;;;6.12;100.00
80566;BME280;69915;54.862;10.730;2023-12-20T03:13:53;100240.38;;;6.01;100.00
80566;BME280;69915;54.862;10.730;2023-12-20T03:16:18;100251.50;;;6.05;100.00
80566;BME280;69915;54.862;10.730;2023-12-20T03:18:44;100237.91;;;6.00;100.00
80566;BME280;69915;54.862;10.730;2023-12-20T03:21:09;100234.41;;;6.05;100.00
80566;BME280;69915;54.862;10.730;2023-12-20T03:23:35;100228.94;;;6.10;100.00
80566;BME280;69915;54.862;10.730;2023-12-20T03:26:00;100240.88;;;6.19;100.00
80566;BME280;69915;54.862;10.730;2023-12-20T03:28:27;100230.03;;;6.14;100.00
80566;BME280;69915;54.862;10.730;2023-12-20T03:30:52;100228.38;;;6.18;100.00
80566;BME280;69915;54.862;10.730;2023-12-20T03:33:18;100228.91;;;6.15;100.00
80566;BME280;69915;54.862;10.730;2023-12-20T03:35:44;100214.53;;;6.19;100.00
80566;BME280;69915;54.862;10.730;2023-12-20T03:38:09;100220.25;;;6.13;100.00
80566;BME280;69915;54.862;10.730;2023-12-20T03:40:35;100209.94;;;6.20;100.00
80566;BME280;69915;54.862;10.730;2023-12-20T03:43:00;100205.06;;;6.17;100.00
80566;BME280;69915;54.862;10.730;2023-12-20T03:45:26;100204.78;;;6.13;100.00
80566;BME280;69915;54.862;10.730;2023-12-20T03:47:51;100201.28;;;6.08;100.00
80566;BME280;69915;54.862;10.730;2023-12-20T03:50:25;100199.38;;;6.08;100.00
80566;BME280;69915;54.862;10.730;2023-12-20T03:52:51;100193.16;;;6.08;100.00
80566;BME280;69915;54.862;10.730;2023-12-20T03:55:16;100187.66;;;6.18;100.00
80566;BME280;69915;54.862;10.730;2023-12-20T03:57:42;100193.66;;;6.20;100.00
80566;BME280;69915;54.862;10.730;2023-12-20T04:00:08;100195.28;;;6.21;100.00
80566;BME280;69915;54.862;10.730;2023-12-20T04:02:41;100183.03;;;6.23;100.00
80566;BME280;69915;54.862;10.730;2023-12-20T04:05:09;100175.13;;;6.32;100.00
80566;BME280;69915;54.862;10.730;2023-12-20T04:07:36;100164.88;;;6.24;100.00
80566;BME280;69915;54.862;10.730;2023-12-20T04:10:02;100168.66;;;6.23;100.00
80566;BME280;69915;54.862;10.730;2023-12-20T04:12:29;100165.13;;;6.22;100.00
80566;BME280;69915;54.862;10.730;2023-12-20T04:14:55;100163.50;;;6.21;100.00
80566;BME280;69915;54.862;10.730;2023-12-20T04:17:21;100157.28;;;6.21;100.00
80566;BME280;69915;54.862;10.730;2023-12-20T04:19:51;100157.81;;;6.23;100.00
80566;BME280;69915;54.862;10.730;2023-12-20T04:22:18;100156.47;;;6.20;100.00
80566;BME280;69915;54.862;10.730;2023-12-20T04:24:45;100147.28;;;6.11;100.00
80566;BME280;69915;54.862;10.730;2023-12-20T04:27:10;100148.03;;;6.22;100.00
80566;BME280;69915;54.862;10.730;2023-12-20T04:29:36;100148.53;;;6.29;100.00
80566;BME280;69915;54.862;10.730;2023-12-20T04:32:02;100135.50;;;6.31;100.00
80566;BME280;69915;54.862;10.730;2023-12-20T04:34:28;100146.91;;;6.33;100.00
80566;BME280;69915;54.862;10.730;2023-12-20T04:36:55;100157.44;;;6.44;100.00
80566;BME280;69915;54.862;10.730;2023-12-20T04:39:21;100159.84;;;6.46;100.00
80566;BME280;69915;54.862;10.730;2023-12-20T04:41:47;100147.38;;;6.40;100.00
80566;BME280;69915;54.862;10.730;2023-12-20T04:44:15;100148.53;;;6.29;100.00
80566;BME280;69915;54.862;10.730;2023-12-20T04:46:41;100169.09;;;6.40;100.00
80566;BME280;69915;54.862;10.730;2023-12-20T04:49:07;100174.88;;;6.28;100.00
80566;BME280;69915;54.862;10.730;2023-12-20T04:51:35;100180.34;;;6.18;100.00
80566;BME280;69915;54.862;10.730;2023-12-20T04:54:02;100150.28;;;5.99;100.00
80566;BME280;69915;54.862;10.730;2023-12-20T04:56:28;100138.94;;;5.77;100.00
80566;BME280;69915;54.862;10.730;2023-12-20T04:58:53;100140.03;;;5.66;100.00
80566;BME280;69915;54.862;10.730;2023-12-20T05:01:19;100129.75;;;5.68;100.00
80566;BME280;69915;54.862;10.730;2023-12-20T05:03:46;100148.19;;;5.71;100.00
80566;BME280;69915;54.862;10.730;2023-12-20T05:06:11;100147.09;;;5.77;100.00
80566;BME280;69915;54.862;10.730;2023-12-20T05:08:37;100119.66;;;5.79;100.00
80566;BME280;69915;54.862;10.730;2023-12-20T05:11:03;100121.84;;;5.77;100.00
80566;BME280;69915;54.862;10.730;2023-12-20T05:13:29;100120.50;;;5.74;100.00
80566;BME280;69915;54.862;10.730;2023-12-20T05:15:54;100124.28;;;5.83;100.00
80566;BME280;69915;54.862;10.730;2023-12-20T05:18:21;100112.06;;;5.91;100.00
80566;BME280;69915;54.862;10.730;2023-12-20T05:20:47;100109.06;;;5.97;100.00
80566;BME280;69915;54.862;10.730;2023-12-20T05:23:12;100097.94;;;5.94;100.00
80566;BME280;69915;54.862;10.730;2023-12-20T05:25:38;100102.00;;;6.01;100.00
80566;BME280;69915;54.862;10.730;2023-12-20T05:28:04;100098.97;;;6.03;100.00
80566;BME280;69915;54.862;10.730;2023-12-20T05:30:30;100087.31;;;6.02;100.00
80566;BME280;69915;54.862;10.730;2023-12-20T05:32:55;100095.44;;;6.08;100.00
80566;BME280;69915;54.862;10.730;2023-12-20T05:35:21;100082.69;;;6.08;100.00
80566;BME280;69915;54.862;10.730;2023-12-20T05:37:49;100080.78;;;6.09;100.00
80566;BME280;69915;54.862;10.730;2023-12-20T05:40:14;100075.38;;;6.03;100.00
80566;BME280;69915;54.862;10.730;2023-12-20T05:42:41;100076.44;;;6.08;100.00
80566;BME280;69915;54.862;10.730;2023-12-20T05:45:08;100068.31;;;6.02;100.00
80566;BME280;69915;54.862;10.730;2023-12-20T05:47:34;100067.28;;;5.98;100.00
80566;BME280;69915;54.862;10.730;2023-12-20T05:50:00;100056.16;;;5.95;100.00
80566;BME280;69915;54.862;10.730;2023-12-20T05:52:25;100049.66;;;5.96;100.00
80566;BME280;69915;54.862;10.730;2023-12-20T05:54:51;100047.25;;;5.89;100.00
80566;BME280;69915;54.862;10.730;2023-12-20T05:57:17;100050.22;;;5.93;100.00
80566;BME280;69915;54.862;10.730;2023-12-20T05:59:43;100046.44;;;5.89;100.00
80566;BME280;69915;54.862;10.730;2023-12-20T06:02:08;100045.34;;;5.90;100.00
80566;BME280;69915;54.862;10.730;2023-12-20T06:04:34;100045.09;;;5.86;100.00
80566;BME280;69915;54.862;10.730;2023-12-20T06:06:59;100049.09;;;5.99;100.00
80566;BME280;69915;54.862;10.730;2023-12-20T06:09:27;100042.84;;;5.93;100.00
80566;BME280;69915;54.862;10.730;2023-12-20T06:11:53;100039.59;;;6.01;100.00
80566;BME280;69915;54.862;10.730;2023-12-20T06:14:18;100036.31;;;5.99;100.00
80566;BME280;69915;54.862;10.730;2023-12-20T06:16:45;100042.28;;;6.01;100.00
80566;BME280;69915;54.862;10.730;2023-12-20T06:19:11;100037.69;;;5.97;100.00
80566;BME280;69915;54.862;10.730;2023-12-20T06:21:37;100035.53;;;5.99;100.00
80566;BME280;69915;54.862;10.730;2023-12-20T06:24:03;100042.84;;;5.93;100.00
80566;BME280;69915;54.862;10.730;2023-12-20T06:26:28;100041.81;;;5.89;100.00
80566;BME280;69915;54.862;10.730;2023-12-20T06:28:55;100040.19;;;5.88;100.00
80566;BME280;69915;54.862;10.730;2023-12-20T06:31:20;100024.47;;;5.85;100.00
80566;BME280;69915;54.862;10.730;2023-12-20T06:33:46;100025.50;;;5.94;100.00
80566;BME280;69915;54.862;10.730;2023-12-20T06:36:12;100026.84;;;6.02;100.00
80566;BME280;69915;54.862;10.730;2023-12-20T06:38:41;100023.56;;;6.05;100.00
80566;BME280;69915;54.862;10.730;2023-12-20T06:41:07;100024.34;;;6.11;100.00
80566;BME280;69915;54.862;10.730;2023-12-20T06:43:33;100038.16;;;6.14;100.00
80566;BME280;69915;54.862;10.730;2023-12-20T06:46:00;100023.22;;;6.12;100.00
80566;BME280;69915;54.862;10.730;2023-12-20T06:48:25;100012.69;;;6.05;100.00
80566;BME280;69915;54.862;10.730;2023-12-20T06:50:52;100018.91;;;6.06;100.00
80566;BME280;69915;54.862;10.730;2023-12-20T06:53:18;100004.25;;;6.07;100.00
80566;BME280;69915;54.862;10.730;2023-12-20T06:55:43;100000.47;;;6.08;100.00
80566;BME280;69915;54.862;10.730;2023-12-20T06:58:09;99997.72;;;6.13;100.00
80566;BME280;69915;54.862;10.730;2023-12-20T07:00:35;99982.03;;;6.05;99.56
80566;BME280;69915;54.862;10.730;2023-12-20T07:03:00;99992.13;;;5.99;99.20
80566;BME280;69915;54.862;10.730;2023-12-20T07:05:26;99990.28;;;5.89;98.49
80566;BME280;69915;54.862;10.730;2023-12-20T07:07:52;99975.34;;;5.92;96.74
80566;BME280;69915;54.862;10.730;2023-12-20T07:10:17;99988.59;;;5.98;96.19
80566;BME280;69915;54.862;10.730;2023-12-20T07:12:43;99983.94;;;6.04;95.71
80566;BME280;69915;54.862;10.730;2023-12-20T07:15:09;99985.03;;;6.03;95.46
80566;BME280;69915;54.862;10.730;2023-12-20T07:17:35;99981.50;;;6.02;96.53
80566;BME280;69915;54.862;10.730;2023-12-20T07:20:00;99996.41;;;6.05;96.72
80566;BME280;69915;54.862;10.730;2023-12-20T07:22:30;99998.63;;;5.98;97.42
80566;BME280;69915;54.862;10.730;2023-12-20T07:24:59;100005.44;;;5.90;97.58
80566;BME280;69915;54.862;10.730;2023-12-20T07:27:25;99994.03;;;5.93;98.48
80566;BME280;69915;54.862;10.730;2023-12-20T07:29:51;99984.34;;;5.72;97.73
80566;BME280;69915;54.862;10.730;2023-12-20T07:32:16;99978.69;;;5.69;97.15
80566;BME280;69915;54.862;10.730;2023-12-20T07:34:42;99994.41;;;5.67;97.57
80566;BME280;69915;54.862;10.730;2023-12-20T07:37:07;99989.22;;;5.75;98.49
80566;BME280;69915;54.862;10.730;2023-12-20T07:39:35;99991.94;;;5.75;99.15
80566;BME280;69915;54.862;10.730;2023-12-20T07:42:01;99988.41;;;5.80;99.31
80566;BME280;69915;54.862;10.730;2023-12-20T07:44:27;99988.94;;;5.77;99.38
80566;BME280;69915;54.862;10.730;2023-12-20T07:46:52;99996.00;;;5.78;99.63
80566;BME280;69915;54.862;10.730;2023-12-20T07:49:19;99985.72;;;5.75;99.63
80566;BME280;69915;54.862;10.730;2023-12-20T07:51:44;99976.50;;;5.66;100.00
80566;BME280;69915;54.862;10.730;2023-12-20T07:54:10;99963.50;;;5.68;100.00
80566;BME280;69915;54.862;10.730;2023-12-20T07:56:36;99961.88;;;5.67;100.00
80566;BME280;69915;54.862;10.730;2023-12-20T07:59:01;99943.44;;;5.69;100.00
80566;BME280;69915;54.862;10.730;2023-12-20T08:01:27;99933.41;;;5.64;100.00
80566;BME280;69915;54.862;10.730;2023-12-20T08:03:52;99933.97;;;5.61;100.00
80566;BME280;69915;54.862;10.730;2023-12-20T08:06:18;99936.13;;;5.64;100.00
80566;BME280;69915;54.862;10.730;2023-12-20T08:08:44;99937.50;;;5.62;100.00
80566;BME280;69915;54.862;10.730;2023-12-20T08:11:09;99936.72;;;5.56;100.00
80566;BME280;69915;54.862;10.730;2023-12-20T08:13:35;99929.63;;;5.65;100.00
80566;BME280;69915;54.862;10.730;2023-12-20T08:16:00;99932.81;;;5.72;100.00
80566;BME280;69915;54.862;10.730;2023-12-20T08:18:28;99925.72;;;5.86;100.00
80566;BME280;69915;54.862;10.730;2023-12-20T08:20:54;99925.97;;;5.85;100.00
80566;BME280;69915;54.862;10.730;2023-12-20T08:23:20;99921.31;;;5.95;100.00
80566;BME280;69915;54.862;10.730;2023-12-20T08:25:49;99905.50;;;6.02;100.00
80566;BME280;69915;54.862;10.730;2023-12-20T08:28:15;99910.59;;;6.14;100.00
80566;BME280;69915;54.862;10.730;2023-12-20T08:30:40;99902.97;;;6.16;100.00
80566;BME280;69915;54.862;10.730;2023-12-20T08:33:06;99905.63;;;6.26;100.00
80566;BME280;69915;54.862;10.730;2023-12-20T08:35:36;99893.28;;;6.39;100.00
80566;BME280;69915;54.862;10.730;2023-12-20T08:38:02;99890.53;;;6.44;100.00
80566;BME280;69915;54.862;10.730;2023-12-20T08:40:29;99898.38;;;6.45;100.00
80566;BME280;69915;54.862;10.730;2023-12-20T08:42:55;99910.72;;;6.33;100.00
80566;BME280;69915;54.862;10.730;2023-12-20T08:45:20;99888.28;;;6.22;100.00
80566;BME280;69915;54.862;10.730;2023-12-20T08:47:46;99888.59;;;6.16;100.00
80566;BME280;69915;54.862;10.730;2023-12-20T08:50:12;99894.84;;;6.16;100.00
80566;BME280;69915;54.862;10.730;2023-12-20T08:52:37;99876.47;;;6.03;100.00
80566;BME280;69915;54.862;10.730;2023-12-20T08:55:05;99873.94;;;5.78;99.92
80566;BME280;69915;54.862;10.730;2023-12-20T08:57:30;99868.53;;;5.73;99.49
80566;BME280;69915;54.862;10.730;2023-12-20T08:59:57;99863.69;;;5.70;99.19
80566;BME280;69915;54.862;10.730;2023-12-20T09:02:23;99863.94;;;5.73;99.19
80566;BME280;69915;54.862;10.730;2023-12-20T09:04:48;99856.88;;;5.72;98.89
80566;BME280;69915;54.862;10.730;2023-12-20T09:07:26;99853.94;;;5.69;99.19
80566;BME280;69915;54.862;10.730;2023-12-20T09:09:53;99852.34;;;5.63;98.92
80566;BME280;69915;54.862;10.730;2023-12-20T09:12:19;99861.28;;;5.63;99.51
80566;BME280;69915;54.862;10.730;2023-12-20T09:14:46;99861.84;;;5.65;100.00
80566;BME280;69915;54.862;10.730;2023-12-20T09:17:12;99879.13;;;5.69;99.91
80566;BME280;69915;54.862;10.730;2023-12-20T09:19:38;99884.56;;;5.74;100.00
80566;BME280;69915;54.862;10.730;2023-12-20T09:22:04;99875.28;;;5.80;100.00
80566;BME280;69915;54.862;10.730;2023-12-20T09:24:31;99878.47;;;5.92;100.00
80566;BME280;69915;54.862;10.730;2023-12-20T09:26:56;99877.94;;;5.90;100.00
80566;BME280;69915;54.862;10.730;2023-12-20T09:29:23;99888.78;;;5.95;100.00
80566;BME280;69915;54.862;10.730;2023-12-20T09:31:48;99902.59;;;5.99;100.00
80566;BME280;69915;54.862;10.730;2023-12-20T09:34:15;99908.84;;;5.94;100.00
80566;BME280;69915;54.862;10.730;2023-12-20T09:36:42;99920.28;;;5.81;100.00
80566;BME280;69915;54.862;10.730;2023-12-20T09:39:16;99920.53;;;5.85;100.00
80566;BME280;69915;54.862;10.730;2023-12-20T09:41:46;99918.41;;;5.87;100.00
80566;BME280;69915;54.862;10.730;2023-12-20T09:44:16;99932.50;;;5.79;99.83
80566;BME280;69915;54.862;10.730;2023-12-20T09:46:45;99914.38;;;5.74;99.04
80566;BME280;69915;54.862;10.730;2023-12-20T09:49:14;99915.56;;;5.58;98.49
80566;BME280;69915;54.862;10.730;2023-12-20T09:51:40;99918.28;;;5.58;98.37
80566;BME280;69915;54.862;10.730;2023-12-20T09:54:07;99927.78;;;5.56;98.21
80566;BME280;69915;54.862;10.730;2023-12-20T09:56:33;99936.69;;;5.61;98.45
80566;BME280;69915;54.862;10.730;2023-12-20T09:58:59;99926.44;;;5.48;98.23
80566;BME280;69915;54.862;10.730;2023-12-20T10:01:25;99929.66;;;5.55;97.41
80566;BME280;69915;54.862;10.730;2023-12-20T10:03:54;99939.38;;;5.66;97.85
80566;BME280;69915;54.862;10.730;2023-12-20T10:06:20;99931.13;;;5.81;97.52
80566;BME280;69915;54.862;10.730;2023-12-20T10:08:46;99928.16;;;5.88;97.51
80566;BME280;69915;54.862;10.730;2023-12-20T10:11:12;99916.38;;;6.02;97.33
80566;BME280;69915;54.862;10.730;2023-12-20T10:13:41;99917.38;;;6.12;97.01
80566;BME280;69915;54.862;10.730;2023-12-20T10:16:07;99918.56;;;6.00;96.35
80566;BME280;69915;54.862;10.730;2023-12-20T10:18:33;99913.13;;;6.00;96.38
80566;BME280;69915;54.862;10.730;2023-12-20T10:20:58;99908.28;;;5.97;96.13
80566;BME280;69915;54.862;10.730;2023-12-20T10:23:24;99904.50;;;5.93;95.72
80566;BME280;69915;54.862;10.730;2023-12-20T10:26:00;99913.19;;;5.95;96.22
80566;BME280;69915;54.862;10.730;2023-12-20T10:28:26;99900.19;;;5.92;95.83
80566;BME280;69915;54.862;10.730;2023-12-20T10:30:54;99920.00;;;5.88;96.79
80566;BME280;69915;54.862;10.730;2023-12-20T10:33:27;99917.50;;;5.96;97.53
80566;BME280;69915;54.862;10.730;2023-12-20T10:36:00;99916.88;;;6.10;97.09
80566;BME280;69915;54.862;10.730;2023-12-20T10:38:25;99918.28;;;6.02;96.93
80566;BME280;69915;54.862;10.730;2023-12-20T10:40:57;99914.84;;;5.81;97.63
80566;BME280;69915;54.862;10.730;2023-12-20T10:43:27;99915.50;;;5.68;97.80
80566;BME280;69915;54.862;10.730;2023-12-20T10:45:54;99901.94;;;5.68;98.35
80566;BME280;69915;54.862;10.730;2023-12-20T10:48:19;99904.19;;;5.56;98.18
80566;BME280;69915;54.862;10.730;2023-12-20T10:50:47;99900.91;;;5.59;97.81
80566;BME280;69915;54.862;10.730;2023-12-20T10:53:16;99903.84;;;5.68;97.84
80566;BME280;69915;54.862;10.730;2023-12-20T10:55:43;99911.97;;;5.68;98.41
80566;BME280;69915;54.862;10.730;2023-12-20T10:58:09;99896.56;;;5.58;98.40
80566;BME280;69915;54.862;10.730;2023-12-20T11:00:45;99897.66;;;5.57;98.64
80566;BME280;69915;54.862;10.730;2023-12-20T11:03:13;99897.91;;;5.61;98.98
80566;BME280;69915;54.862;10.730;2023-12-20T11:11:01;99891.56;;;5.80;96.97
80566;BME280;69915;54.862;10.730;2023-12-20T11:13:57;99894.06;;;5.67;95.65
80566;BME280;69915;54.862;10.730;2023-12-20T11:16:24;99889.50;;;5.62;95.94
80566;BME280;69915;54.862;10.730;2023-12-20T11:18:51;99887.84;;;5.66;96.13
80566;BME280;69915;54.862;10.730;2023-12-20T11:21:16;99897.56;;;5.77;96.01
80566;BME280;69915;54.862;10.730;2023-12-20T11:23:42;99892.94;;;5.78;96.06
80566;BME280;69915;54.862;10.730;2023-12-20T11:26:08;99892.38;;;5.81;95.75
80566;BME280;69915;54.862;10.730;2023-12-20T11:28:34;99883.69;;;5.79;95.27
80566;BME280;69915;54.862;10.730;2023-12-20T11:31:01;99892.06;;;5.87;94.67
80566;BME280;69915;54.862;10.730;2023-12-20T11:33:30;99869.56;;;5.87;94.60
80566;BME280;69915;54.862;10.730;2023-12-20T11:35:57;99880.91;;;5.94;94.50
80566;BME280;69915;54.862;10.730;2023-12-20T11:38:25;99879.19;;;6.03;94.09
80566;BME280;69915;54.862;10.730;2023-12-20T11:40:53;99869.56;;;6.21;94.00
80566;BME280;69915;54.862;10.730;2023-12-20T11:43:32;99872.56;;;6.19;93.49
80566;BME280;69915;54.862;10.730;2023-12-20T11:46:07;99862.44;;;6.30;92.78
80566;BME280;69915;54.862;10.730;2023-12-20T11:48:40;99871.09;;;6.32;92.24
80566;BME280;69915;54.862;10.730;2023-12-20T11:51:12;99860.00;;;6.52;92.21
80566;BME280;69915;54.862;10.730;2023-12-20T11:53:39;99857.72;;;6.64;91.22
80566;BME280;69915;54.862;10.730;2023-12-20T11:56:08;99855.00;;;6.64;90.72
80566;BME280;69915;54.862;10.730;2023-12-20T11:58:34;99851.34;;;6.50;89.93
80566;BME280;69915;54.862;10.730;2023-12-20T12:01:00;99836.78;;;6.41;90.08
80566;BME280;69915;54.862;10.730;2023-12-20T12:03:27;99847.16;;;6.34;89.71
80566;BME280;69915;54.862;10.730;2023-12-20T12:05:53;99862.69;;;6.28;90.45
80566;BME280;69915;54.862;10.730;2023-12-20T12:08:19;99877.22;;;6.14;92.56
80566;BME280;69915;54.862;10.730;2023-12-20T12:10:45;99886.13;;;5.80;93.45
80566;BME280;69915;54.862;10.730;2023-12-20T12:13:11;99879.53;;;5.53;94.36
80566;BME280;69915;54.862;10.730;2023-12-20T12:15:37;99894.16;;;5.52;95.49
80566;BME280;69915;54.862;10.730;2023-12-20T12:18:03;99879.53;;;5.53;95.71
80566;BME280;69915;54.862;10.730;2023-12-20T12:20:29;99873.31;;;5.52;94.94
80566;BME280;69915;54.862;10.730;2023-12-20T12:22:59;99865.13;;;5.57;94.67
80566;BME280;69915;54.862;10.730;2023-12-20T12:25:25;99864.88;;;5.54;94.15
80566;BME280;69915;54.862;10.730;2023-12-20T12:27:51;99877.88;;;5.57;94.51
80566;BME280;69915;54.862;10.730;2023-12-20T12:30:17;99873.25;;;5.57;94.52
80566;BME280;69915;54.862;10.730;2023-12-20T12:32:44;99881.94;;;5.54;94.49
80566;BME280;69915;54.862;10.730;2023-12-20T12:35:10;99875.97;;;5.57;94.62
80566;BME280;69915;54.862;10.730;2023-12-20T12:37:38;99884.66;;;5.59;94.58
80566;BME280;69915;54.862;10.730;2023-12-20T12:40:11;99889.50;;;5.62;94.89
80566;BME280;69915;54.862;10.730;2023-12-20T12:42:37;99889.22;;;5.64;95.03
80566;BME280;69915;54.862;10.730;2023-12-20T12:45:03;99895.97;;;5.66;94.50
80566;BME280;69915;54.862;10.730;2023-12-20T12:47:30;99879.97;;;5.70;94.34
80566;BME280;69915;54.862;10.730;2023-12-20T12:49:56;99881.28;;;5.72;94.20